Terminal Aerodrome Forecast
Issued by NWS Shreveport, LA

Home | Current Version | Previous Version | Text Only | Print | Product List | Glossary On
Versions: 1 2 3 4 5 6 7 8 9 10 11 12 13 14 15 16 17 18 19 20
000
FTUS44 KSHV 050533
TAFLFK
TAF
KLFK 050533Z 0506/0606 03006KT P6SM VCSH OVC015
     FM050800 04007KT 5SM -RA BR OVC009
     FM051100 05007KT 3SM RA BR OVC004
     FM060100 30003KT 3SM BR OVC004=

USA.gov is the U.S. government's official web portal to all federal, state and local government web resources and services.